createdAt,value
2017-08-17T00:02:21.079Z,46
2017-08-17T00:07:26.488Z,46.1
2017-08-17T00:12:31.898Z,46.1
2017-08-17T00:17:37.308Z,46.1
2017-08-17T00:22:43.052Z,46.1
2017-08-17T00:27:48.795Z,46.1
2017-08-17T00:32:54.537Z,46.1
2017-08-17T00:38:00.282Z,46.1
2017-08-17T00:43:05.691Z,46.1
2017-08-17T00:48:11.094Z,46.1
2017-08-17T00:53:16.836Z,46.1
2017-08-17T00:58:21.906Z,46.1
2017-08-17T01:03:27.983Z,46.2
2017-08-17T01:08:33.387Z,46.2
2017-08-17T01:13:38.793Z,46.2
2017-08-17T01:18:43.868Z,46.2
2017-08-17T01:23:49.274Z,46.2
2017-08-17T01:28:54.682Z,46.2
2017-08-17T01:34:00.093Z,46.3
2017-08-17T01:39:05.834Z,46.3
2017-08-17T01:44:11.577Z,46.3
2017-08-17T01:49:17.315Z,46.3
2017-08-17T01:54:22.727Z,46.3
2017-08-17T01:59:28.136Z,46.3
2017-08-17T02:04:34.211Z,46.3
2017-08-17T02:09:40.286Z,46.4
2017-08-17T02:14:46.028Z,46.4
2017-08-17T02:19:51.441Z,46.4
2017-08-17T02:24:56.848Z,46.7
2017-08-17T02:30:01.921Z,46.9
2017-08-17T02:35:07.664Z,47
2017-08-17T02:40:12.736Z,47
2017-08-17T02:45:18.478Z,47
2017-08-17T02:50:23.212Z,47
2017-08-17T02:55:28.952Z,47
2017-08-17T03:00:34.692Z,47.1
2017-08-17T03:05:40.427Z,47.1
2017-08-17T03:10:46.557Z,47.1
2017-08-17T03:15:52.297Z,47.2
2017-08-17T03:20:58.369Z,47.2
2017-08-17T03:26:04.444Z,47.2
2017-08-17T03:31:09.843Z,47.2
2017-08-17T03:36:15.917Z,47.3
2017-08-17T03:41:21.327Z,47.4
2017-08-17T03:46:27.071Z,47.4
2017-08-17T03:51:32.809Z,47.4
2017-08-17T03:56:38.884Z,47.4
2017-08-17T04:01:44.289Z,47.4
2017-08-17T04:06:50.027Z,47.4
2017-08-17T04:11:55.433Z,47.4
2017-08-17T04:17:00.506Z,47.4
2017-08-17T04:22:05.911Z,47.4
2017-08-17T04:27:11.315Z,47.5
2017-08-17T04:32:17.059Z,47.5
2017-08-17T04:37:22.800Z,47.5
2017-08-17T04:42:28.209Z,47.6
2017-08-17T04:47:33.614Z,47.6
2017-08-17T04:52:39.356Z,47.8
2017-08-17T04:57:45.431Z,48.1
2017-08-17T05:02:51.508Z,48.1
2017-08-17T05:07:57.248Z,48.4
2017-08-17T05:13:02.322Z,49
2017-08-17T05:18:07.393Z,49.2
2017-08-17T05:23:12.803Z,49.2
2017-08-17T05:28:18.892Z,49
2017-08-17T05:33:24.300Z,48.7
2017-08-17T05:38:30.041Z,48.4
2017-08-17T05:43:35.112Z,48.1
2017-08-17T05:48:40.516Z,47.9
2017-08-17T05:53:45.922Z,47.8
2017-08-17T05:58:51.659Z,47.8
2017-08-17T06:03:57.068Z,47.7
2017-08-17T06:09:02.810Z,47.7
2017-08-17T06:14:08.218Z,47.7
2017-08-17T06:19:12.954Z,47.7
2017-08-17T06:24:19.031Z,47.6
2017-08-17T06:29:24.771Z,47.6
2017-08-17T06:34:30.514Z,47.6
2017-08-17T06:39:35.921Z,47.7
2017-08-17T06:44:41.329Z,47.7
2017-08-17T06:49:47.408Z,47.6
2017-08-17T06:54:52.488Z,47.6
2017-08-17T06:59:57.888Z,47.7
2017-08-17T07:05:02.964Z,47.7
2017-08-17T07:10:09.043Z,47.7
2017-08-17T07:15:14.449Z,47.7
2017-08-17T07:20:19.523Z,47.6
2017-08-17T07:25:24.934Z,47.5
2017-08-17T07:30:30.677Z,47.4
2017-08-17T07:35:36.091Z,47.8
2017-08-17T07:40:42.170Z,47.4
2017-08-17T07:45:47.244Z,46.8
2017-08-17T07:50:52.656Z,46.4
2017-08-17T07:55:58.401Z,46.3
2017-08-17T08:01:04.148Z,46.3
2017-08-17T08:06:08.228Z,46.3
2017-08-17T08:11:13.975Z,46.3
2017-08-17T08:16:19.060Z,46.3
2017-08-17T08:21:24.143Z,46
2017-08-17T08:26:29.897Z,45.7
2017-08-17T08:31:34.986Z,45.3
2017-08-17T08:36:40.739Z,45
2017-08-17T08:41:46.826Z,44.6
2017-08-17T08:46:52.579Z,44.5
2017-08-17T08:51:57.999Z,44.5
2017-08-17T08:57:03.087Z,44.5
2017-08-17T09:02:08.507Z,44.7
2017-08-17T09:07:13.927Z,44.6
2017-08-17T09:12:19.346Z,44.5
2017-08-17T09:17:25.100Z,44.7
2017-08-17T09:22:30.907Z,45
2017-08-17T09:27:37.195Z,45.1
2017-08-17T09:32:42.613Z,45.3
2017-08-17T09:37:48.366Z,45.4
2017-08-17T09:42:54.123Z,45.4
2017-08-17T09:47:59.880Z,45.4
2017-08-17T09:53:05.996Z,45.4
2017-08-17T09:58:11.137Z,45.7
2017-08-17T10:03:17.221Z,46
2017-08-17T10:08:22.974Z,46.2
2017-08-17T10:13:28.734Z,46.5
2017-08-17T10:18:34.511Z,46.7
2017-08-17T10:23:40.262Z,46.7
2017-08-17T10:28:45.682Z,46.8
2017-08-17T10:33:50.431Z,47
2017-08-17T10:38:55.851Z,47.1
2017-08-17T10:44:01.265Z,47.2
2017-08-17T10:49:07.016Z,47.4
2017-08-17T10:54:12.763Z,47.6
2017-08-17T10:59:18.198Z,47.7
2017-08-17T11:04:23.311Z,47.8
2017-08-17T11:09:29.077Z,47.9
2017-08-17T11:14:34.179Z,48
2017-08-17T11:19:39.621Z,48.1
2017-08-17T11:24:45.743Z,48.1
2017-08-17T11:29:50.840Z,48.3
2017-08-17T11:34:56.958Z,49
2017-08-17T11:40:02.805Z,48.9
2017-08-17T11:45:08.603Z,48.8
2017-08-17T11:50:13.720Z,48.6
2017-08-17T11:55:19.503Z,48.6
2017-08-17T12:00:25.323Z,48.6
2017-08-17T12:05:31.105Z,48.5
2017-08-17T12:10:37.181Z,48.7
2017-08-17T12:15:42.602Z,48.7
2017-08-17T12:20:47.680Z,48.8
2017-08-17T12:25:53.428Z,48.9
2017-08-17T12:30:59.186Z,49
2017-08-17T12:36:04.305Z,49.2
2017-08-17T12:41:09.729Z,49.3
2017-08-17T12:46:15.145Z,49.8
2017-08-17T12:51:20.900Z,50.2
2017-08-17T12:56:26.314Z,50.3
2017-08-17T13:01:31.395Z,50.6
2017-08-17T13:06:36.137Z,50.9
2017-08-17T13:11:41.884Z,52.3
2017-08-17T13:16:46.962Z,52.4
2017-08-17T13:21:52.709Z,51.6
2017-08-17T13:26:57.786Z,52.6
2017-08-17T13:32:03.585Z,52.8
2017-08-17T13:37:08.996Z,53.8
2017-08-17T13:42:14.072Z,54.1
2017-08-17T13:47:19.484Z,53.5
2017-08-17T13:52:25.571Z,53.4
2017-08-17T13:57:30.315Z,52.4
2017-08-17T14:02:35.391Z,52.4
2017-08-17T14:07:41.138Z,52.3
2017-08-17T14:12:46.557Z,52.6
2017-08-17T14:17:52.636Z,54.1
2017-08-17T14:22:58.720Z,54.7
2017-08-17T14:28:04.469Z,55.1
2017-08-17T14:33:09.544Z,54.7
2017-08-17T14:38:15.627Z,55.4
2017-08-17T14:43:20.374Z,55.6
2017-08-17T14:48:26.126Z,55.5
2017-08-17T14:53:31.871Z,55.6
2017-08-17T14:58:37.955Z,55.8
2017-08-17T15:03:43.368Z,55.6
2017-08-17T15:08:49.114Z,55.7
2017-08-17T15:13:54.526Z,55.6
2017-08-17T15:19:00.277Z,55.7
2017-08-17T15:24:06.016Z,55.7
2017-08-17T15:29:11.426Z,56.1
2017-08-17T15:34:17.508Z,56.5
2017-08-17T15:39:23.250Z,57.2
2017-08-17T15:44:29.335Z,57.4
2017-08-17T15:49:35.419Z,57.4
2017-08-17T15:54:41.160Z,57.5
2017-08-17T15:59:46.579Z,57.8
2017-08-17T16:04:51.331Z,57.9
2017-08-17T16:09:56.410Z,57.8
2017-08-17T16:15:02.488Z,58
2017-08-17T16:20:06.896Z,58.1
2017-08-17T16:25:11.977Z,58.3
2017-08-17T16:30:17.053Z,58.3
2017-08-17T16:35:22.472Z,58.4
2017-08-17T16:40:27.882Z,58.4
2017-08-17T16:45:33.960Z,58.2
2017-08-17T16:50:39.707Z,58.1
2017-08-17T16:55:45.792Z,58
2017-08-17T17:00:50.232Z,57.9
2017-08-17T17:05:55.354Z,57.8
2017-08-17T17:11:00.445Z,57.8
2017-08-17T17:16:06.205Z,57.5
2017-08-17T17:21:11.315Z,57.4
2017-08-17T17:26:17.087Z,57.3
2017-08-17T17:31:23.195Z,57.2
2017-08-17T17:36:28.968Z,57.1
2017-08-17T17:41:34.072Z,57
2017-08-17T17:46:39.887Z,56.5
2017-08-17T17:51:45.361Z,56.9
2017-08-17T17:56:51.136Z,56.2
2017-08-17T18:01:56.578Z,55.8
2017-08-17T18:07:01.702Z,55.8
2017-08-17T18:12:07.484Z,55.7
2017-08-17T18:17:13.290Z,55.8
2017-08-17T18:22:18.735Z,55.9
2017-08-17T18:27:23.843Z,55.7
2017-08-17T18:32:29.307Z,55.7
2017-08-17T18:37:35.094Z,55.6
2017-08-17T18:42:40.934Z,55.7
2017-08-17T18:47:46.710Z,55.6
2017-08-17T18:52:52.157Z,55.6
2017-08-17T18:57:57.651Z,55.5
2017-08-17T19:03:03.764Z,55.5
2017-08-17T19:08:09.216Z,56.3
2017-08-17T19:13:14.999Z,56.3
2017-08-17T19:18:20.433Z,56.3
2017-08-17T19:23:26.220Z,56
2017-08-17T19:28:31.997Z,55.9
2017-08-17T19:33:37.152Z,55.7
2017-08-17T19:38:43.311Z,55.7
2017-08-17T19:43:48.421Z,55.7
2017-08-17T19:48:53.518Z,55.7
2017-08-17T19:53:59.291Z,55.7
2017-08-17T19:59:04.742Z,55.7
2017-08-17T20:04:10.519Z,55.7
2017-08-17T20:09:15.634Z,55.7
2017-08-17T20:14:21.737Z,55.7
2017-08-17T20:19:27.840Z,55.6
2017-08-17T20:24:33.877Z,55.5
2017-08-17T20:29:39.350Z,55.4
2017-08-17T20:34:45.138Z,55.4
2017-08-17T20:39:51.250Z,55.3
2017-08-17T20:44:56.353Z,55.2
2017-08-17T20:50:01.458Z,55.1
2017-08-17T20:55:07.231Z,55
2017-08-17T21:00:13.007Z,55
2017-08-17T21:05:18.437Z,54.9
2017-08-17T21:10:23.881Z,54.9
2017-08-17T21:15:29.303Z,54.9
2017-08-17T21:20:34.377Z,55.2
2017-08-17T21:25:39.462Z,55.3
2017-08-17T21:30:44.882Z,55.4
2017-08-17T21:35:50.294Z,55.3
2017-08-17T21:40:56.041Z,55.3
2017-08-17T21:46:02.122Z,55.2
2017-08-17T21:51:07.870Z,55.1
2017-08-17T21:56:13.293Z,55.1
2017-08-17T22:01:19.041Z,55
2017-08-17T22:06:24.655Z,54.9
2017-08-17T22:11:30.401Z,54.9
2017-08-17T22:16:35.477Z,54.9
2017-08-17T22:21:41.565Z,54.8
2017-08-17T22:26:46.973Z,54.7
2017-08-17T22:31:52.048Z,54.7
2017-08-17T22:36:57.796Z,54.7
2017-08-17T22:42:03.205Z,54.7
2017-08-17T22:47:08.952Z,54.7
2017-08-17T22:52:14.029Z,54.6
2017-08-17T22:57:19.775Z,54.6
2017-08-17T23:02:25.190Z,54.5
2017-08-17T23:07:30.937Z,54.5
2017-08-17T23:12:36.006Z,54.5
2017-08-17T23:17:41.753Z,54.5
2017-08-17T23:22:47.502Z,54.4
2017-08-17T23:27:52.912Z,54.4
2017-08-17T23:32:58.323Z,54.4
2017-08-17T23:38:03.401Z,54.4
2017-08-17T23:43:08.809Z,54.4
2017-08-17T23:48:14.556Z,54.4
2017-08-17T23:53:19.632Z,54.4
2017-08-17T23:58:25.041Z,54.4
